Terminal Aerodrome Forecast
Issued by NWS

Home | Current Version | Previous Version | Text Only | Print | Product List | Glossary On
Versions: 1 2 3 4 5 6 7 8 9 10 11 12 13 14 15 16 17 18 19 20 21 22 23 24 25 26
000
FTUS43 KGRR 050932 AAB
TAFJXN
TAF AMD
KJXN 050932Z 0510/0606 00000KT P6SM SCT007 BKN035
      TEMPO 0511/0513 3SM BR BKN015
     FM051300 23006KT P6SM VCTS BKN035CB
     FM060000 24002KT 6SM BR SKC=

USA.gov is the U.S. government's official web portal to all federal, state and local government web resources and services.